Accueil
METAR-TAF:

METAR-TAF

Aéroports :

Aéroport de Dresde

Dresde, Allemagne

latitude: 51-08N, longitude: 013-45E, altitude: 230 m

Observation

Le bulletin a été fait il y a 36 minutes, à 03:20 UTC
Vent 4 kt de sud/sud-est
Température 1°C
Humidité 100%
Pression 1030 hPa
Visibilité: 6000 m

METAR: EDDC 240320Z 16004KT 6000 NSC 01/01 Q1030

Heure: 05:56 (03:56 UTC)

Prévision

Le bulletin a été fait il y a 4 heures et 56 minutes, à 23:00 UTC
Prévision valable du 24 à 00 UTC au 24 à 24 UTC
Vent 6 kt de sud
Visibilité 10 km ou plus
pas de nuages en-dessous de 1500 mètres et pas de cumulonimbus.
Evoluant progressivement
du 24 à 09 UTC au 24 à 11 UTC
Vent 11 kt de sud/sud-est

TAF: EDDC 232300Z 2400/2424 17006KT CAVOK BECMG 2409/2411 15011KT

Observations et prévisions météorologiques de plus de 4000 aéroports (messages METAR et TAF).

Les stations disponibles sont représentées par des disques jaunes et rouges sur la carte.

Passer la souris dessus pour voir le nom de la station.

Cliquer dessus pour voir les observations et prévisions météorologiques.

Pour changer de carte: cliquez sur les boutons verts avec une croix noire pour zoomer, sur le bouton vert avec un tiret pour effectuer un zoom arrière, ou sur les flèches vertes pour les cartes adjacentes.


METAR-TAF: